Time;durP1;ratioP1;P1;durP2;ratioP2;P2;SDS_P1;SDS_P2;PMS_P1;PMS_P2;Temp;Humidity;BMP_temperature;BMP_pressure;BME280_temperature;BME280_humidity;BME280_pressure;Samples;Min_cycle;Max_cycle;Signal;HPM_P1;HPM_P2
2023/08/17 00:00:01;;;;;;;4.32;2.13;;;16.80;99.90;;;;;;5075571;28;20405;-69
2023/08/17 00:02:27;;;;;;;4.55;1.70;;;16.80;99.90;;;;;;5078323;28;20338;-69
2023/08/17 00:04:52;;;;;;;3.42;2.20;;;16.80;99.90;;;;;;5058886;28;20090;-69
2023/08/17 00:07:18;;;;;;;9.75;2.10;;;16.90;99.90;;;;;;5077258;28;20056;-69
2023/08/17 00:09:44;;;;;;;3.28;2.20;;;16.80;99.90;;;;;;5078199;28;20051;-70
2023/08/17 00:12:09;;;;;;;4.22;1.85;;;16.80;99.90;;;;;;5057622;28;20499;-69
2023/08/17 00:14:35;;;;;;;4.45;1.60;;;16.80;99.90;;;;;;5078274;28;20049;-68
2023/08/17 00:17:02;;;;;;;4.43;1.98;;;16.80;99.90;;;;;;5075323;28;20041;-68
2023/08/17 00:19:28;;;;;;;10.25;1.73;;;16.80;99.90;;;;;;5078380;28;20079;-69
2023/08/17 00:21:55;;;;;;;4.05;2.13;;;16.80;99.90;;;;;;5076187;28;20601;-70
2023/08/17 00:24:21;;;;;;;7.10;1.88;;;16.80;99.90;;;;;;5059106;28;20041;-69
2023/08/17 00:26:46;;;;;;;5.50;1.63;;;16.80;99.90;;;;;;5077931;28;20041;-70
2023/08/17 00:29:14;;;;;;;4.47;1.60;;;16.70;99.90;;;;;;5075287;28;20059;-69
2023/08/17 00:31:41;;;;;;;7.75;2.00;;;16.70;99.90;;;;;;5060265;28;20170;-70
2023/08/17 00:34:06;;;;;;;7.65;1.92;;;16.70;99.90;;;;;;5057111;28;20044;-69
2023/08/17 00:36:32;;;;;;;4.50;1.90;;;16.70;99.90;;;;;;5078181;28;20082;-69
2023/08/17 00:38:58;;;;;;;4.35;2.22;;;16.60;99.90;;;;;;5076075;28;20098;-69
2023/08/17 00:41:23;;;;;;;5.57;1.65;;;16.70;99.90;;;;;;5042521;28;20055;-70
2023/08/17 00:43:49;;;;;;;7.47;2.20;;;16.60;99.90;;;;;;5077410;28;20071;-69
2023/08/17 00:46:15;;;;;;;4.90;2.10;;;16.60;99.90;;;;;;5057606;28;20056;-69
2023/08/17 00:48:42;;;;;;;4.88;1.70;;;16.60;99.90;;;;;;5043448;28;20040;-71
2023/08/17 00:51:08;;;;;;;4.30;1.95;;;16.60;99.90;;;;;;5074955;28;20090;-69
2023/08/17 00:53:34;;;;;;;4.47;1.90;;;16.60;99.90;;;;;;5043393;28;20801;-70
2023/08/17 00:56:01;;;;;;;3.92;2.10;;;16.50;99.90;;;;;;5075394;28;20044;-70
2023/08/17 00:58:27;;;;;;;4.45;1.80;;;16.60;99.90;;;;;;5077285;28;20149;-68
2023/08/17 01:00:53;;;;;;;5.15;2.03;;;16.60;99.90;;;;;;5059122;28;20056;-70
2023/08/17 01:03:21;;;;;;;4.80;2.00;;;16.60;99.90;;;;;;5057445;28;20048;-70
2023/08/17 01:05:47;;;;;;;4.45;1.73;;;16.60;99.90;;;;;;5059955;28;20040;-69
2023/08/17 01:08:13;;;;;;;3.97;1.80;;;16.60;99.90;;;;;;5057073;28;20059;-70
2023/08/17 01:10:52;;;;;;;7.82;2.28;;;16.60;99.90;;;;;;5077908;28;20419;-70
2023/08/17 01:13:34;;;;;;;6.35;1.95;;;16.60;99.90;;;;;;5075703;28;20079;-69
2023/08/17 01:16:05;;;;;;;5.68;1.70;;;16.60;99.90;;;;;;5076095;28;20048;-69
2023/08/17 01:18:34;;;;;;;3.35;1.75;;;16.60;99.90;;;;;;5077835;28;20055;-69
2023/08/17 01:21:02;;;;;;;1.85;1.30;;;16.60;99.90;;;;;;5074659;28;20104;-69
2023/08/17 01:23:27;;;;;;;2.92;1.65;;;16.60;99.90;;;;;;5077527;28;20040;-70
2023/08/17 01:25:53;;;;;;;2.88;2.17;;;16.60;99.90;;;;;;5056773;28;20048;-70
2023/08/17 01:28:19;;;;;;;4.13;1.67;;;16.60;99.90;;;;;;5025686;28;20057;-70
2023/08/17 01:30:51;;;;;;;4.85;1.73;;;16.60;99.90;;;;;;5058506;28;20056;-69
2023/08/17 01:33:42;;;;;;;4.10;1.80;;;16.60;99.90;;;;;;5059383;28;20104;-70
2023/08/17 01:36:32;;;;;;;7.10;1.80;;;16.60;99.90;;;;;;5069778;28;20052;-72
2023/08/17 01:39:00;;;;;;;5.97;1.98;;;16.60;99.90;;;;;;5078906;28;20480;-69
2023/08/17 01:41:27;;;;;;;3.15;1.70;;;16.50;99.90;;;;;;5062049;28;20143;-69
2023/08/17 01:43:53;;;;;;;4.50;1.65;;;16.60;99.90;;;;;;5062666;28;20075;-69
2023/08/17 01:46:19;;;;;;;3.00;1.40;;;16.50;99.90;;;;;;5078416;28;20087;-69
2023/08/17 01:48:46;;;;;;;3.97;1.83;;;16.50;99.90;;;;;;5063127;28;20044;-69
2023/08/17 01:51:19;;;;;;;6.72;1.77;;;16.50;99.90;;;;;;5078246;28;20405;-68
2023/08/17 01:53:45;;;;;;;4.70;1.70;;;16.50;99.90;;;;;;5046357;28;20048;-69
2023/08/17 01:56:11;;;;;;;4.85;1.80;;;16.50;99.90;;;;;;5079306;28;20048;-69
2023/08/17 01:58:39;;;;;;;1.85;1.50;;;16.50;99.90;;;;;;5079964;28;20078;-69
2023/08/17 02:01:04;;;;;;;4.22;1.90;;;16.50;99.90;;;;;;5062801;28;20045;-69
2023/08/17 02:03:31;;;;;;;5.90;1.80;;;16.50;99.90;;;;;;5060438;28;20070;-68
2023/08/17 02:05:57;;;;;;;8.52;1.77;;;16.50;99.90;;;;;;5080809;28;20063;-69
2023/08/17 02:08:23;;;;;;;6.13;1.50;;;16.50;99.90;;;;;;5060125;28;20520;-70
2023/08/17 02:10:49;;;;;;;7.25;1.75;;;16.50;99.90;;;;;;5062746;28;20245;-69
2023/08/17 02:13:16;;;;;;;5.25;2.00;;;16.50;99.90;;;;;;5060798;28;20070;-69
2023/08/17 02:15:42;;;;;;;3.53;1.35;;;16.50;99.90;;;;;;5080045;28;20067;-70
2023/08/17 02:18:08;;;;;;;6.32;1.77;;;16.50;99.90;;;;;;5080579;28;20076;-69
2023/08/17 02:20:34;;;;;;;8.77;2.00;;;16.50;99.90;;;;;;5078162;28;20061;-69
2023/08/17 02:23:00;;;;;;;5.65;1.45;;;16.50;99.90;;;;;;5045982;28;20040;-68
2023/08/17 02:25:27;;;;;;;5.80;1.80;;;16.50;99.90;;;;;;5059233;28;20122;-67
2023/08/17 02:27:53;;;;;;;5.40;1.60;;;16.40;99.90;;;;;;5062333;28;21014;-69
2023/08/17 02:30:19;;;;;;;3.58;1.70;;;16.50;99.90;;;;;;5043446;28;20080;-69
2023/08/17 02:32:44;;;;;;;9.00;1.92;;;16.40;99.90;;;;;;5079821;28;20044;-70
2023/08/17 02:35:10;;;;;;;4.85;1.63;;;16.40;99.90;;;;;;5045198;28;20101;-69
2023/08/17 02:37:36;;;;;;;5.03;1.40;;;16.40;99.90;;;;;;5059552;28;20041;-68
2023/08/17 02:40:04;;;;;;;2.20;1.73;;;16.40;99.90;;;;;;5079721;28;20619;-69
2023/08/17 02:42:29;;;;;;;3.50;1.48;;;16.40;99.90;;;;;;5077140;28;20137;-69
2023/08/17 02:44:55;;;;;;;5.65;1.67;;;16.40;99.90;;;;;;5078746;28;20049;-70
2023/08/17 02:47:21;;;;;;;4.97;1.67;;;16.40;99.90;;;;;;5059684;28;20044;-70
2023/08/17 02:49:49;;;;;;;5.57;1.73;;;16.40;99.90;;;;;;5079666;28;20047;-69
2023/08/17 02:52:15;;;;;;;6.80;2.17;;;16.40;99.90;;;;;;5079353;28;20060;-69
2023/08/17 02:54:40;;;;;;;4.45;1.83;;;16.40;99.90;;;;;;5077490;28;20559;-69
2023/08/17 02:57:06;;;;;;;4.60;1.52;;;16.40;99.90;;;;;;5061885;28;20177;-69
2023/08/17 02:59:32;;;;;;;3.47;1.50;;;16.40;99.90;;;;;;5042491;28;20128;-69
2023/08/17 03:01:57;;;;;;;4.32;1.85;;;16.40;99.90;;;;;;5061850;28;20083;-70
2023/08/17 03:04:24;;;;;;;4.22;1.77;;;16.30;99.90;;;;;;5059212;28;20140;-70
2023/08/17 03:06:50;;;;;;;5.57;1.60;;;16.30;99.90;;;;;;5061519;28;20049;-70
2023/08/17 03:09:15;;;;;;;4.97;1.65;;;16.30;99.90;;;;;;5078694;28;20078;-69
2023/08/17 03:11:41;;;;;;;3.83;2.10;;;16.30;99.90;;;;;;5077863;28;20103;-70
2023/08/17 03:14:07;;;;;;;5.07;2.00;;;16.30;99.90;;;;;;5045099;28;20109;-69
2023/08/17 03:16:33;;;;;;;3.80;1.90;;;16.40;99.90;;;;;;5076712;28;20048;-69
2023/08/17 03:18:59;;;;;;;8.70;1.95;;;16.40;99.90;;;;;;5061630;28;20048;-69
2023/08/17 03:21:24;;;;;;;4.07;1.73;;;16.40;99.90;;;;;;5042017;28;20051;-69
2023/08/17 03:23:50;;;;;;;7.72;1.63;;;16.40;99.90;;;;;;5079104;28;20072;-70
2023/08/17 03:26:16;;;;;;;5.18;1.95;;;16.30;99.90;;;;;;5042848;28;20045;-69
2023/08/17 03:28:42;;;;;;;4.85;2.13;;;16.30;99.90;;;;;;5077742;28;20052;-70
2023/08/17 03:31:10;;;;;;;3.60;1.80;;;16.30;99.90;;;;;;5061022;28;20040;-70
2023/08/17 03:33:36;;;;;;;7.70;2.05;;;16.40;99.90;;;;;;5076211;28;20040;-70
2023/08/17 03:36:03;;;;;;;3.80;1.80;;;16.30;99.90;;;;;;5079275;28;20036;-69
2023/08/17 03:38:28;;;;;;;2.83;1.67;;;16.30;99.90;;;;;;5041516;28;20052;-70
2023/08/17 03:40:54;;;;;;;3.67;1.80;;;16.40;99.90;;;;;;5078624;28;20094;-69
2023/08/17 03:43:20;;;;;;;6.95;1.95;;;16.40;99.90;;;;;;5077307;28;20059;-69
2023/08/17 03:45:46;;;;;;;4.28;1.83;;;16.40;99.90;;;;;;5059607;28;20045;-69
2023/08/17 03:48:12;;;;;;;3.13;1.90;;;16.30;99.90;;;;;;5078803;28;20052;-69
2023/08/17 03:50:38;;;;;;;8.07;2.47;;;16.40;99.90;;;;;;5076007;28;20097;-70
2023/08/17 03:53:04;;;;;;;4.03;2.03;;;16.40;99.90;;;;;;5060510;28;20056;-69
2023/08/17 03:55:30;;;;;;;4.13;2.13;;;16.40;99.90;;;;;;5057638;28;20048;-69
2023/08/17 03:57:56;;;;;;;4.07;2.22;;;16.40;99.90;;;;;;5060920;28;20100;-70
2023/08/17 04:00:21;;;;;;;3.65;2.10;;;16.40;99.90;;;;;;5076890;28;20056;-70
2023/08/17 04:02:47;;;;;;;4.47;1.90;;;16.40;99.90;;;;;;5077899;28;20094;-70
2023/08/17 04:05:13;;;;;;;5.38;2.22;;;16.40;99.90;;;;;;5060498;28;20079;-70
2023/08/17 04:07:39;;;;;;;6.82;2.00;;;16.40;99.90;;;;;;5057955;28;20080;-71
2023/08/17 04:10:08;;;;;;;7.97;2.28;;;16.40;99.90;;;;;;5060240;28;20037;-70
2023/08/17 04:12:34;;;;;;;10.70;2.20;;;16.40;99.90;;;;;;5057566;28;20063;-70
2023/08/17 04:15:00;;;;;;;5.18;2.50;;;16.40;99.90;;;;;;5078652;28;20044;-69
2023/08/17 04:17:26;;;;;;;4.82;2.00;;;16.40;99.90;;;;;;5075701;28;20140;-70
2023/08/17 04:19:52;;;;;;;6.88;2.33;;;16.40;99.90;;;;;;5076926;28;20051;-69
2023/08/17 04:22:18;;;;;;;9.57;2.85;;;16.40;99.90;;;;;;5077309;28;20056;-70
2023/08/17 04:24:43;;;;;;;12.07;2.63;;;16.40;99.90;;;;;;5075139;28;20040;-70
2023/08/17 04:27:09;;;;;;;7.72;2.22;;;16.40;99.90;;;;;;5077711;28;20510;-70
2023/08/17 04:29:37;;;;;;;3.45;2.35;;;16.40;99.90;;;;;;5057015;28;20072;-70
2023/08/17 04:32:03;;;;;;;5.50;2.45;;;16.50;99.90;;;;;;5059635;28;20044;-71
2023/08/17 04:34:29;;;;;;;6.18;2.63;;;16.40;99.90;;;;;;5057557;28;20052;-69
2023/08/17 04:36:55;;;;;;;6.78;2.38;;;16.40;99.90;;;;;;5076870;28;20439;-70
2023/08/17 04:39:21;;;;;;;5.85;2.22;;;16.40;99.90;;;;;;5059297;28;20135;-70
2023/08/17 04:41:46;;;;;;;5.80;2.13;;;16.50;99.90;;;;;;5075446;28;20045;-69
2023/08/17 04:44:12;;;;;;;7.70;2.33;;;16.40;99.90;;;;;;5043098;28;20044;-69
2023/08/17 04:46:38;;;;;;;8.00;2.17;;;16.50;99.90;;;;;;5074777;28;20043;-71
2023/08/17 04:49:04;;;;;;;7.00;2.25;;;16.50;99.90;;;;;;5059408;28;20054;-70
2023/08/17 04:51:30;;;;;;;9.07;2.50;;;16.40;99.90;;;;;;5074253;28;20061;-70
2023/08/17 04:53:55;;;;;;;6.45;1.95;;;16.40;99.90;;;;;;5077010;28;20044;-69
2023/08/17 04:56:21;;;;;;;8.65;2.47;;;16.40;99.90;;;;;;5076548;28;20051;-69
2023/08/17 04:58:47;;;;;;;7.55;1.98;;;16.50;99.90;;;;;;5075611;28;20657;-69
2023/08/17 05:01:12;;;;;;;8.95;2.30;;;16.50;99.90;;;;;;5058958;28;20079;-71
2023/08/17 05:03:38;;;;;;;13.18;2.60;;;16.50;99.90;;;;;;5074540;28;20052;-70
2023/08/17 05:06:04;;;;;;;6.05;2.10;;;16.50;99.90;;;;;;5042150;28;20040;-69
2023/08/17 05:08:30;;;;;;;13.68;2.58;;;16.50;99.90;;;;;;5055486;28;20052;-69
2023/08/17 05:10:55;;;;;;;6.22;2.15;;;16.50;99.90;;;;;;5042242;28;20115;-69
2023/08/17 05:13:21;;;;;;;4.93;2.08;;;16.50;99.90;;;;;;5057519;28;20049;-69
2023/08/17 05:15:47;;;;;;;5.00;1.92;;;16.50;99.90;;;;;;5040837;28;20068;-69
2023/08/17 05:18:13;;;;;;;5.72;2.20;;;16.50;99.90;;;;;;5058840;28;20041;-70
2023/08/17 05:20:38;;;;;;;4.03;1.65;;;16.40;99.90;;;;;;5073725;28;20074;-69
2023/08/17 05:23:05;;;;;;;4.70;1.77;;;16.40;99.90;;;;;;5077183;28;20522;-69
2023/08/17 05:25:30;;;;;;;7.80;2.70;;;16.40;99.90;;;;;;5055879;28;20056;-69
2023/08/17 05:27:56;;;;;;;3.90;2.00;;;16.40;99.90;;;;;;5077126;28;20044;-70
2023/08/17 05:30:22;;;;;;;6.97;2.88;;;16.40;99.90;;;;;;5075224;28;20044;-68
2023/08/17 05:32:47;;;;;;;4.47;2.08;;;16.50;99.90;;;;;;5041218;28;20403;-71
2023/08/17 05:35:13;;;;;;;6.28;2.05;;;16.50;99.90;;;;;;5058313;28;20052;-71
2023/08/17 05:37:39;;;;;;;6.13;1.85;;;16.50;99.90;;;;;;5074275;28;20127;-69
2023/08/17 05:40:05;;;;;;;7.40;1.70;;;16.50;99.90;;;;;;5077134;28;20051;-70
2023/08/17 05:42:31;;;;;;;8.88;2.38;;;16.50;99.90;;;;;;5055958;28;20048;-69
2023/08/17 05:44:57;;;;;;;7.15;1.95;;;16.50;99.90;;;;;;5076872;28;20565;-69
2023/08/17 05:47:23;;;;;;;8.77;2.00;;;16.50;99.90;;;;;;5056586;28;20285;-70
2023/08/17 05:49:48;;;;;;;3.47;2.10;;;16.50;99.90;;;;;;5075883;28;20044;-70
2023/08/17 05:52:14;;;;;;;6.85;2.20;;;16.60;99.90;;;;;;5058016;28;20060;-69
2023/08/17 05:54:40;;;;;;;9.32;2.25;;;16.50;99.90;;;;;;5074459;28;20044;-70
2023/08/17 05:57:06;;;;;;;8.68;2.08;;;16.60;99.90;;;;;;5042071;28;20048;-68
2023/08/17 05:59:31;;;;;;;6.50;1.77;;;16.60;99.90;;;;;;5056002;28;20052;-69
2023/08/17 06:01:57;;;;;;;5.40;2.13;;;16.60;99.90;;;;;;5042314;28;20054;-69
2023/08/17 06:04:23;;;;;;;5.80;1.88;;;16.60;99.90;;;;;;5056324;28;20131;-70
2023/08/17 06:06:49;;;;;;;4.80;1.77;;;16.60;99.90;;;;;;5076384;28;20056;-69
2023/08/17 06:09:15;;;;;;;6.47;1.90;;;16.60;99.90;;;;;;5076224;28;20049;-69
2023/08/17 06:11:41;;;;;;;5.25;2.08;;;16.60;99.90;;;;;;5074706;28;20465;-70
2023/08/17 06:14:07;;;;;;;12.15;2.10;;;16.70;99.90;;;;;;5058710;28;20085;-69
2023/08/17 06:16:32;;;;;;;2.72;1.75;;;16.70;99.90;;;;;;5055665;28;20060;-69
2023/08/17 06:18:58;;;;;;;7.65;2.08;;;16.70;99.90;;;;;;5078151;28;20033;-69
2023/08/17 06:21:24;;;;;;;4.63;1.92;;;16.70;99.90;;;;;;5077363;28;20139;-70
2023/08/17 06:23:50;;;;;;;9.13;1.90;;;16.70;99.90;;;;;;5061784;28;20109;-70
2023/08/17 06:26:15;;;;;;;5.47;1.60;;;16.70;99.90;;;;;;5060562;28;20101;-69
2023/08/17 06:28:41;;;;;;;5.18;2.05;;;16.70;99.90;;;;;;5040435;28;20045;-71
2023/08/17 06:31:07;;;;;;;7.45;1.83;;;16.80;99.90;;;;;;5061572;28;20049;-70
2023/08/17 06:33:33;;;;;;;4.57;1.55;;;16.80;99.90;;;;;;5075677;28;20048;-70
2023/08/17 06:35:59;;;;;;;6.00;1.95;;;16.90;99.90;;;;;;5079261;28;20047;-70
2023/08/17 06:38:26;;;;;;;4.50;1.52;;;16.90;99.90;;;;;;5076558;28;20041;-69
2023/08/17 06:40:52;;;;;;;4.63;1.88;;;16.90;99.90;;;;;;5079258;28;20048;-69
2023/08/17 06:43:18;;;;;;;4.50;2.03;;;16.90;99.90;;;;;;5059394;28;20076;-70
2023/08/17 06:45:44;;;;;;;4.65;2.00;;;16.90;99.90;;;;;;5058051;28;20423;-71
2023/08/17 06:48:10;;;;;;;8.98;1.80;;;16.90;99.90;;;;;;5060363;28;20036;-70
2023/08/17 06:50:36;;;;;;;5.18;1.88;;;16.90;99.90;;;;;;5057966;28;20074;-72
2023/08/17 06:53:02;;;;;;;7.72;1.65;;;16.90;99.90;;;;;;5060707;28;20167;-71
2023/08/17 06:55:28;;;;;;;5.93;1.95;;;16.90;99.90;;;;;;5057839;28;20052;-71
2023/08/17 06:57:54;;;;;;;8.23;2.25;;;16.90;99.90;;;;;;5077963;28;20055;-70
2023/08/17 07:00:20;;;;;;;7.18;1.88;;;16.90;99.90;;;;;;5077468;28;20039;-69
2023/08/17 07:02:50;;;;;;;5.60;1.63;;;17.00;99.90;;;;;;5042511;28;20108;-70
2023/08/17 07:05:16;;;;;;;6.18;1.58;;;17.00;99.90;;;;;;5077065;28;20044;-69
2023/08/17 07:07:42;;;;;;;5.45;1.77;;;16.90;99.90;;;;;;5075985;28;20055;-69
2023/08/17 07:10:10;;;;;;;5.57;1.60;;;16.90;99.90;;;;;;5058400;28;20040;-69
2023/08/17 07:12:37;;;;;;;4.05;1.52;;;16.90;99.90;;;;;;5066756;28;20098;-69
2023/08/17 07:15:04;;;;;;;7.55;1.95;;;17.00;99.90;;;;;;5059141;28;20488;-70
2023/08/17 07:17:30;;;;;;;3.80;1.67;;;17.00;99.90;;;;;;5057211;28;20045;-70
2023/08/17 07:19:56;;;;;;;5.78;1.85;;;17.00;99.90;;;;;;5057788;28;20051;-71
2023/08/17 07:22:21;;;;;;;3.88;1.60;;;17.00;99.90;;;;;;5063443;28;20041;-69
2023/08/17 07:24:47;;;;;;;4.82;1.63;;;17.00;99.90;;;;;;5057478;28;20100;-70
2023/08/17 07:27:13;;;;;;;10.50;1.73;;;17.00;99.90;;;;;;5078652;28;20123;-70
2023/08/17 07:29:38;;;;;;;3.47;1.60;;;17.00;99.90;;;;;;5075694;28;20098;-69
2023/08/17 07:32:05;;;;;;;8.50;1.98;;;17.10;99.90;;;;;;5059479;28;20075;-70
2023/08/17 07:34:31;;;;;;;9.02;1.55;;;17.10;99.90;;;;;;5076449;28;20024;-69
2023/08/17 07:36:57;;;;;;;5.78;1.75;;;17.10;99.90;;;;;;5077554;28;20055;-69
2023/08/17 07:39:23;;;;;;;3.78;1.65;;;17.10;99.90;;;;;;5078385;28;20585;-70
2023/08/17 07:41:49;;;;;;;8.75;2.00;;;17.20;99.90;;;;;;5058408;28;20041;-70
2023/08/17 07:44:15;;;;;;;5.82;1.92;;;17.20;99.90;;;;;;5060378;28;20051;-69
2023/08/17 07:46:41;;;;;;;5.30;1.58;;;17.20;99.90;;;;;;5057661;28;20040;-70
2023/08/17 07:49:08;;;;;;;8.35;1.95;;;17.30;99.90;;;;;;5044085;28;20060;-70
2023/08/17 07:51:34;;;;;;;7.05;2.08;;;17.20;99.90;;;;;;5075879;28;20095;-70
2023/08/17 07:54:00;;;;;;;5.10;1.88;;;17.30;99.90;;;;;;5059587;28;20738;-69
2023/08/17 07:56:26;;;;;;;3.28;1.70;;;17.30;99.90;;;;;;5077737;28;20045;-70
2023/08/17 07:58:56;;;;;;;4.50;1.55;;;17.30;99.90;;;;;;5073685;28;20048;-69
2023/08/17 08:01:21;;;;;;;4.57;1.50;;;17.30;99.90;;;;;;5076917;28;20044;-70
2023/08/17 08:03:47;;;;;;;4.38;1.50;;;17.30;99.90;;;;;;5057570;28;20095;-69
2023/08/17 08:06:13;;;;;;;7.70;1.63;;;17.30;99.90;;;;;;5060292;28;20049;-69
2023/08/17 08:08:40;;;;;;;5.47;1.73;;;17.40;99.90;;;;;;5075672;28;20100;-70
2023/08/17 08:11:06;;;;;;;7.15;1.90;;;17.40;99.90;;;;;;5059796;28;20071;-70
2023/08/17 08:13:31;;;;;;;4.28;1.52;;;17.40;99.90;;;;;;5077457;28;20052;-70
2023/08/17 08:15:58;;;;;;;5.60;1.73;;;17.40;99.90;;;;;;5057502;28;20052;-69
2023/08/17 08:18:25;;;;;;;5.47;1.95;;;17.50;99.90;;;;;;5078034;28;20096;-70
2023/08/17 08:20:53;;;;;;;5.03;2.05;;;17.50;99.90;;;;;;5056962;28;20045;-69
2023/08/17 08:23:19;;;;;;;7.45;1.77;;;17.50;99.90;;;;;;5043061;28;20465;-70
2023/08/17 08:25:45;;;;;;;3.00;1.45;;;17.60;99.90;;;;;;5057155;28;20088;-70
2023/08/17 08:28:10;;;;;;;5.45;1.60;;;17.60;99.90;;;;;;5077193;28;20047;-69
2023/08/17 08:30:36;;;;;;;2.70;1.60;;;17.60;99.90;;;;;;5058850;28;20096;-70
2023/08/17 08:33:02;;;;;;;6.55;2.03;;;17.60;99.90;;;;;;5075779;28;20532;-69
2023/08/17 08:35:29;;;;;;;7.82;1.90;;;17.60;99.90;;;;;;5077764;28;20040;-70
2023/08/17 08:37:58;;;;;;;4.03;1.60;;;17.60;99.90;;;;;;5057095;28;20673;-70
2023/08/17 08:40:30;;;;;;;6.38;1.38;;;17.60;99.90;;;;;;5077693;28;20048;-70
2023/08/17 08:42:59;;;;;;;6.32;1.73;;;17.60;99.90;;;;;;5073720;28;20056;-69
2023/08/17 08:45:26;;;;;;;3.42;1.40;;;17.60;99.90;;;;;;5058852;28;20104;-70
2023/08/17 08:47:53;;;;;;;5.68;1.67;;;17.60;99.90;;;;;;5077099;28;20079;-70
2023/08/17 08:50:22;;;;;;;5.13;1.70;;;17.60;99.90;;;;;;5075201;28;20060;-71
2023/08/17 08:53:00;;;;;;;4.30;1.80;;;17.60;99.90;;;;;;5077160;28;20063;-70
2023/08/17 08:55:33;;;;;;;7.50;1.85;;;17.70;99.90;;;;;;5074391;28;20048;-70
2023/08/17 08:57:59;;;;;;;3.83;1.55;;;17.70;99.90;;;;;;5074833;28;20051;-70
2023/08/17 09:00:26;;;;;;;4.55;1.63;;;17.60;99.90;;;;;;5075984;28;20049;-70
2023/08/17 09:02:53;;;;;;;5.70;1.80;;;17.70;99.90;;;;;;5075958;28;20153;-70
2023/08/17 09:05:21;;;;;;;5.53;1.90;;;17.70;99.90;;;;;;5077357;28;20070;-70
2023/08/17 09:07:49;;;;;;;7.75;2.00;;;17.70;99.90;;;;;;5040609;28;20048;-70
2023/08/17 09:10:16;;;;;;;4.50;1.80;;;17.80;99.90;;;;;;5060003;28;20040;-70
2023/08/17 09:12:45;;;;;;;4.75;1.90;;;17.80;99.90;;;;;;5056908;28;20091;-70
2023/08/17 09:15:11;;;;;;;6.50;1.65;;;17.90;99.90;;;;;;5059589;28;20086;-70
2023/08/17 09:17:36;;;;;;;3.53;1.70;;;17.90;99.90;;;;;;5076789;28;20048;-70
2023/08/17 09:20:03;;;;;;;3.85;1.92;;;18.00;99.90;;;;;;5075682;28;20053;-69
2023/08/17 09:22:40;;;;;;;3.45;1.65;;;17.90;99.90;;;;;;5040057;28;20062;-70
2023/08/17 09:25:07;;;;;;;5.68;1.75;;;18.00;99.90;;;;;;5074202;28;20052;-70
2023/08/17 09:27:33;;;;;;;5.97;1.65;;;18.00;99.90;;;;;;5077237;28;20045;-71
2023/08/17 09:30:06;;;;;;;4.80;2.03;;;18.10;99.90;;;;;;5074824;28;20051;-71
2023/08/17 09:32:33;;;;;;;3.92;1.90;;;18.00;99.90;;;;;;5074568;28;20404;-70
2023/08/17 09:35:04;;;;;;;2.55;1.55;;;18.10;99.90;;;;;;5058792;28;20443;-71
2023/08/17 09:37:29;;;;;;;5.90;1.58;;;18.10;99.90;;;;;;5071029;28;20827;-70
2023/08/17 09:39:55;;;;;;;3.25;1.70;;;18.10;99.90;;;;;;5059536;28;20120;-70
2023/08/17 09:42:22;;;;;;;4.07;1.98;;;18.10;99.90;;;;;;5056674;28;20044;-74
2023/08/17 09:44:49;;;;;;;3.17;1.88;;;18.10;99.90;;;;;;5077717;28;20052;-75
2023/08/17 09:47:17;;;;;;;6.75;2.05;;;18.10;99.90;;;;;;5075377;28;20040;-74
2023/08/17 09:49:49;;;;;;;3.40;1.83;;;18.10;99.90;;;;;;5076877;28;20053;-75
2023/08/17 09:52:15;;;;;;;4.40;2.33;;;18.10;99.90;;;;;;5077257;28;20140;-74
2023/08/17 09:54:42;;;;;;;5.13;2.35;;;18.10;99.90;;;;;;5043166;28;20545;-74
2023/08/17 09:57:08;;;;;;;8.88;1.70;;;18.10;99.90;;;;;;5081055;28;20445;-72
2023/08/17 09:59:34;;;;;;;6.63;1.83;;;18.20;99.90;;;;;;5078283;28;20056;-74
2023/08/17 10:02:03;;;;;;;4.45;1.90;;;18.20;99.90;;;;;;5045906;28;20075;-71
2023/08/17 10:04:32;;;;;;;6.10;2.17;;;18.20;99.90;;;;;;5079015;28;20064;-71
2023/08/17 10:07:03;;;;;;;3.05;1.95;;;18.20;99.90;;;;;;5061889;28;20412;-70
2023/08/17 10:09:37;;;;;;;5.68;2.15;;;18.30;99.90;;;;;;5080749;28;20056;-72
2023/08/17 10:12:09;;;;;;;6.30;1.95;;;18.30;99.90;;;;;;5077983;28;20051;-71
2023/08/17 10:14:46;;;;;;;7.32;2.00;;;18.40;99.90;;;;;;5080715;28;20079;-70
2023/08/17 10:17:15;;;;;;;7.05;2.03;;;18.40;99.90;;;;;;5060341;28;20098;-70
2023/08/17 10:19:58;;;;;;;5.53;1.98;;;18.40;99.90;;;;;;5080023;28;20071;-70
2023/08/17 10:22:46;;;;;;;10.75;2.50;;;18.40;99.90;;;;;;5080548;28;20052;-71
2023/08/17 10:25:13;;;;;;;3.08;1.83;;;18.40;99.90;;;;;;5059280;28;20045;-70
2023/08/17 10:27:41;;;;;;;7.22;2.35;;;18.50;99.90;;;;;;5062401;28;20044;-70
2023/08/17 10:30:11;;;;;;;9.07;2.00;;;18.50;99.90;;;;;;5060190;28;20048;-70
2023/08/17 10:32:38;;;;;;;4.97;2.45;;;18.60;99.90;;;;;;5079685;28;20385;-70
2023/08/17 10:35:05;;;;;;;8.82;2.35;;;18.60;99.90;;;;;;5045546;28;20051;-70
2023/08/17 10:37:32;;;;;;;4.95;2.70;;;18.70;99.90;;;;;;5059989;28;20127;-70
2023/08/17 10:39:57;;;;;;;6.38;2.20;;;18.70;99.90;;;;;;5080492;28;20063;-70
2023/08/17 10:42:32;;;;;;;2.83;1.90;;;18.70;99.90;;;;;;5059563;28;20048;-70
2023/08/17 10:44:57;;;;;;;6.80;2.08;;;18.70;99.90;;;;;;5062524;28;20048;-70
2023/08/17 10:47:29;;;;;;;3.55;1.80;;;18.80;99.90;;;;;;5078794;28;20036;-70
2023/08/17 10:49:58;;;;;;;4.87;2.30;;;18.90;99.90;;;;;;5079018;28;20463;-70
2023/08/17 10:52:31;;;;;;;3.95;2.20;;;18.90;99.90;;;;;;5080255;28;20048;-70
2023/08/17 10:55:05;;;;;;;4.85;2.13;;;18.80;99.90;;;;;;5077461;28;20048;-69
2023/08/17 10:57:41;;;;;;;7.50;2.60;;;18.80;99.90;;;;;;5062470;28;20055;-70
2023/08/17 11:00:26;;;;;;;6.43;2.60;;;18.80;99.90;;;;;;5078248;28;20045;-69
2023/08/17 11:03:00;;;;;;;7.32;2.38;;;18.90;99.90;;;;;;5060426;28;20044;-69
2023/08/17 11:05:35;;;;;;;6.90;2.25;;;18.90;99.90;;;;;;5079158;28;20045;-70
2023/08/17 11:08:00;;;;;;;5.32;2.38;;;19.00;99.90;;;;;;5076736;28;20100;-70
2023/08/17 11:10:28;;;;;;;3.55;2.63;;;19.10;99.90;;;;;;5080037;28;20055;-70
2023/08/17 11:13:01;;;;;;;5.43;2.50;;;19.20;99.90;;;;;;5077591;28;20040;-70
2023/08/17 11:15:39;;;;;;;5.75;2.40;;;19.30;99.90;;;;;;5061595;28;20054;-70
2023/08/17 11:18:07;;;;;;;5.25;3.05;;;19.30;99.90;;;;;;5061029;28;20056;-71
2023/08/17 11:20:33;;;;;;;4.97;2.33;;;19.30;99.90;;;;;;5076355;28;20052;-69
2023/08/17 11:23:00;;;;;;;4.60;2.45;;;19.30;99.90;;;;;;5061076;28;20056;-70
2023/08/17 11:25:29;;;;;;;3.80;2.97;;;19.20;99.90;;;;;;5054530;28;20041;-70
2023/08/17 11:27:55;;;;;;;5.47;2.85;;;19.20;99.90;;;;;;5060830;28;20050;-70
2023/08/17 11:30:25;;;;;;;4.68;2.92;;;19.20;99.90;;;;;;5043410;28;20068;-70
2023/08/17 11:32:52;;;;;;;6.25;3.33;;;19.20;99.90;;;;;;5077605;28;20050;-70
2023/08/17 11:35:19;;;;;;;4.30;3.10;;;19.10;99.90;;;;;;5044789;28;20426;-70
2023/08/17 11:37:45;;;;;;;8.27;2.88;;;19.10;99.90;;;;;;5058017;28;20044;-71
2023/08/17 11:40:14;;;;;;;4.57;3.03;;;19.10;99.90;;;;;;5076073;28;20048;-70
2023/08/17 11:42:40;;;;;;;5.88;3.40;;;19.10;99.90;;;;;;5072480;28;20051;-70
2023/08/17 11:45:09;;;;;;;10.43;3.22;;;19.10;99.90;;;;;;5059697;28;20110;-69
2023/08/17 11:47:39;;;;;;;5.30;3.30;;;19.20;99.90;;;;;;5077523;28;20123;-70
2023/08/17 11:50:06;;;;;;;6.53;2.90;;;19.20;99.90;;;;;;5057244;28;20116;-71
2023/08/17 11:52:33;;;;;;;5.45;2.92;;;19.30;99.90;;;;;;5071490;28;20086;-70
2023/08/17 11:54:59;;;;;;;6.20;3.45;;;19.30;99.90;;;;;;5070869;28;20036;-70
2023/08/17 11:57:26;;;;;;;8.38;3.67;;;19.30;99.90;;;;;;5060393;28;20542;-70
2023/08/17 11:59:56;;;;;;;5.85;3.50;;;19.30;99.90;;;;;;5075834;28;20040;-70
2023/08/17 12:02:26;;;;;;;4.97;3.17;;;19.30;99.90;;;;;;5076173;28;20052;-69
2023/08/17 12:04:53;;;;;;;5.28;3.55;;;19.30;99.90;;;;;;5060151;28;20051;-69
2023/08/17 12:07:19;;;;;;;6.40;3.20;;;19.30;99.90;;;;;;5058147;28;20400;-69
2023/08/17 12:09:46;;;;;;;3.97;2.83;;;19.30;99.90;;;;;;5078486;28;20040;-69
2023/08/17 12:12:12;;;;;;;7.30;3.15;;;19.30;99.90;;;;;;5075724;28;20087;-69
2023/08/17 12:14:45;;;;;;;8.65;3.40;;;19.30;99.90;;;;;;5060380;28;20057;-69
2023/08/17 12:17:15;;;;;;;6.20;3.17;;;19.40;99.90;;;;;;5076148;28;20074;-68
2023/08/17 12:19:41;;;;;;;4.22;3.30;;;19.40;99.90;;;;;;5043002;28;20116;-68
2023/08/17 12:22:06;;;;;;;8.02;3.22;;;19.40;99.90;;;;;;5078088;28;20059;-68
2023/08/17 12:24:33;;;;;;;4.65;3.10;;;19.50;99.90;;;;;;5075857;28;20048;-68
2023/08/17 12:26:59;;;;;;;5.22;2.97;;;19.50;99.90;;;;;;5060380;28;20393;-69
2023/08/17 12:29:25;;;;;;;4.75;3.30;;;19.60;99.90;;;;;;5075622;28;20078;-69
2023/08/17 12:31:52;;;;;;;6.65;3.50;;;19.70;99.90;;;;;;5043714;28;20045;-69
2023/08/17 12:34:18;;;;;;;6.25;3.55;;;19.70;99.90;;;;;;5075068;28;20044;-69
2023/08/17 12:36:44;;;;;;;6.45;3.45;;;19.70;99.90;;;;;;5059470;28;20043;-70
2023/08/17 12:39:10;;;;;;;4.68;3.50;;;19.70;99.90;;;;;;5042942;28;20041;-68
2023/08/17 12:41:36;;;;;;;7.10;3.80;;;19.70;99.90;;;;;;5075251;28;20052;-69
2023/08/17 12:44:01;;;;;;;4.65;3.60;;;19.70;99.90;;;;;;5059867;28;20131;-68